createdAt,value
2023-09-28T00:01:42.394Z,96.40
2023-09-28T00:04:26.989Z,96.54
2023-09-28T00:07:10.959Z,96.78
2023-09-28T00:09:53.794Z,97.24
2023-09-28T00:12:37.628Z,97.33
2023-09-28T00:15:22.474Z,98.16
2023-09-28T00:18:06.947Z,97.97
2023-09-28T00:20:52.452Z,97.95
2023-09-28T00:23:36.407Z,98.03
2023-09-28T00:26:20.448Z,97.79
2023-09-28T00:29:06.105Z,97.69
2023-09-28T00:31:50.728Z,98.04
2023-09-28T00:34:33.760Z,98.16
2023-09-28T00:37:19.044Z,97.09
2023-09-28T00:40:09.130Z,97.20
2023-09-28T00:42:53.882Z,98.09
2023-09-28T00:45:38.488Z,97.39
2023-09-28T00:48:23.022Z,97.76
2023-09-28T00:51:06.039Z,99.94
2023-09-28T00:53:52.514Z,100.00
2023-09-28T00:56:37.757Z,100.00
2023-09-28T00:59:22.367Z,100.00
2023-09-28T01:02:06.500Z,100.00
2023-09-28T01:04:49.547Z,100.00
2023-09-28T01:07:34.126Z,100.00
2023-09-28T01:10:21.588Z,100.00
2023-09-28T01:13:09.749Z,100.00
2023-09-28T01:15:52.752Z,100.00
2023-09-28T01:18:37.577Z,100.00
2023-09-28T01:21:20.453Z,100.00
2023-09-28T01:24:06.067Z,100.00
2023-09-28T01:26:50.080Z,100.00
2023-09-28T01:29:33.993Z,100.00
2023-09-28T01:32:17.046Z,100.00
2023-09-28T01:35:00.994Z,100.00
2023-09-28T01:37:55.602Z,100.00
2023-09-28T01:40:41.416Z,100.00
2023-09-28T01:43:24.330Z,100.00
2023-09-28T01:46:08.308Z,100.00
2023-09-28T01:48:51.225Z,100.00
2023-09-28T01:51:35.167Z,100.00
2023-09-28T01:54:18.080Z,100.00
2023-09-28T01:57:03.383Z,100.00
2023-09-28T01:59:46.346Z,100.00
2023-09-28T02:02:30.744Z,100.00
2023-09-28T02:05:18.159Z,100.00
2023-09-28T02:08:02.665Z,99.26
2023-09-28T02:10:47.220Z,99.22
2023-09-28T02:13:32.326Z,99.08
2023-09-28T02:16:16.448Z,98.71
2023-09-28T02:18:59.467Z,98.33
2023-09-28T02:21:43.657Z,98.39
2023-09-28T02:24:27.503Z,98.09
2023-09-28T02:27:10.530Z,97.56
2023-09-28T02:29:55.990Z,97.64
2023-09-28T02:32:39.653Z,97.55
2023-09-28T02:35:25.481Z,97.65
2023-09-28T02:38:08.690Z,96.86
2023-09-28T02:40:53.050Z,96.13
2023-09-28T02:43:37.017Z,95.67
2023-09-28T02:46:21.368Z,95.93
2023-09-28T02:49:07.507Z,95.32
2023-09-28T02:51:51.922Z,95.31
2023-09-28T02:54:35.873Z,95.30
2023-09-28T02:57:19.724Z,95.24
2023-09-28T03:00:13.185Z,95.19
2023-09-28T03:02:58.957Z,94.92
2023-09-28T03:05:42.223Z,94.82
2023-09-28T03:08:26.414Z,94.49
2023-09-28T03:11:09.398Z,94.77
2023-09-28T03:13:53.549Z,94.88
2023-09-28T03:16:37.710Z,95.07
2023-09-28T03:19:22.013Z,94.22
2023-09-28T03:22:06.155Z,94.90
2023-09-28T03:24:49.238Z,94.73
2023-09-28T03:27:33.174Z,95.40
2023-09-28T03:30:17.924Z,94.85
2023-09-28T03:33:01.672Z,95.02
2023-09-28T03:35:47.360Z,95.56
2023-09-28T03:38:31.278Z,95.14
2023-09-28T03:41:15.948Z,94.00
2023-09-28T03:43:59.961Z,94.71
2023-09-28T03:46:44.023Z,95.28
2023-09-28T03:49:27.919Z,96.22
2023-09-28T03:52:13.189Z,95.91
2023-09-28T03:54:57.720Z,96.98
2023-09-28T03:57:43.948Z,97.25
2023-09-28T04:00:28.174Z,98.23
2023-09-28T04:03:12.965Z,99.09
2023-09-28T04:05:56.837Z,99.14
2023-09-28T04:08:42.144Z,98.33
2023-09-28T04:11:26.123Z,98.14
2023-09-28T04:14:10.129Z,98.12
2023-09-28T04:16:54.336Z,98.16
2023-09-28T04:19:38.620Z,97.87
2023-09-28T04:22:22.896Z,97.48
2023-09-28T04:25:09.373Z,97.42
2023-09-28T04:27:53.244Z,97.11
2023-09-28T04:30:38.249Z,97.18
2023-09-28T04:33:22.506Z,97.07
2023-09-28T04:36:09.005Z,96.83
2023-09-28T04:38:52.932Z,96.91
2023-09-28T04:41:38.246Z,97.36
2023-09-28T04:44:22.686Z,96.86
2023-09-28T04:47:06.939Z,96.79
2023-09-28T04:49:51.321Z,97.26
2023-09-28T04:52:35.223Z,97.45
2023-09-28T04:55:19.388Z,97.40
2023-09-28T04:58:04.805Z,97.02
2023-09-28T05:00:48.623Z,96.43
2023-09-28T05:03:33.097Z,96.75
2023-09-28T05:06:17.253Z,97.04
2023-09-28T05:09:01.495Z,96.27
2023-09-28T05:11:45.672Z,96.64
2023-09-28T05:14:31.066Z,95.65
2023-09-28T05:17:15.896Z,95.58
2023-09-28T05:20:00.059Z,95.38
2023-09-28T05:22:45.009Z,94.50
2023-09-28T05:25:30.038Z,94.29
2023-09-28T05:28:15.806Z,94.36
2023-09-28T05:31:01.241Z,94.76
2023-09-28T05:33:45.629Z,95.06
2023-09-28T05:36:29.672Z,95.35
2023-09-28T05:39:13.958Z,95.23
2023-09-28T05:41:58.035Z,95.10
2023-09-28T05:44:42.078Z,95.10
2023-09-28T05:47:27.573Z,94.97
2023-09-28T05:50:12.827Z,95.05
2023-09-28T05:52:57.712Z,94.71
2023-09-28T05:55:41.855Z,95.36
2023-09-28T05:58:25.780Z,94.10
2023-09-28T06:01:11.139Z,94.05
2023-09-28T06:03:56.537Z,93.51
2023-09-28T06:06:40.463Z,93.81
2023-09-28T06:09:24.404Z,94.50
2023-09-28T06:12:08.669Z,92.60
2023-09-28T06:14:52.586Z,91.47
2023-09-28T06:17:36.714Z,92.11
2023-09-28T06:20:22.398Z,90.60
2023-09-28T06:23:06.473Z,89.49
2023-09-28T06:25:50.502Z,88.69
2023-09-28T06:28:34.515Z,87.97
2023-09-28T06:31:20.352Z,86.82
2023-09-28T06:34:04.624Z,87.11
2023-09-28T06:36:52.819Z,86.24
2023-09-28T06:39:39.069Z,85.61
2023-09-28T06:42:36.274Z,87.36
2023-09-28T06:45:21.447Z,87.21
2023-09-28T06:48:18.606Z,87.59
2023-09-28T06:51:04.345Z,87.54
2023-09-28T06:53:50.033Z,87.79
2023-09-28T06:56:36.156Z,87.03
2023-09-28T06:59:20.576Z,86.31
2023-09-28T07:02:05.995Z,85.51
2023-09-28T07:04:50.838Z,83.31
2023-09-28T07:07:34.868Z,83.05
2023-09-28T07:10:20.361Z,80.90
2023-09-28T07:13:06.563Z,78.44
2023-09-28T07:15:51.024Z,77.48
2023-09-28T07:18:35.282Z,77.01
2023-09-28T07:21:19.268Z,78.91
2023-09-28T07:24:16.677Z,78.18
2023-09-28T07:27:04.466Z,76.75
2023-09-28T07:29:50.216Z,76.31
2023-09-28T07:32:34.507Z,75.92
2023-09-28T07:35:19.525Z,73.81
2023-09-28T07:38:03.649Z,72.63
2023-09-28T07:40:48.532Z,72.05
2023-09-28T07:43:34.009Z,70.67
2023-09-28T07:46:17.967Z,69.89
2023-09-28T07:49:02.104Z,69.25
2023-09-28T07:51:45.979Z,67.23
2023-09-28T07:54:29.800Z,68.51
2023-09-28T07:57:13.765Z,66.36
2023-09-28T07:59:59.197Z,68.56
2023-09-28T08:02:43.888Z,69.43
2023-09-28T08:05:28.419Z,70.01
2023-09-28T08:08:16.811Z,70.86
2023-09-28T08:11:02.437Z,69.14
2023-09-28T08:13:46.435Z,67.04
2023-09-28T08:16:31.885Z,68.10
2023-09-28T08:19:15.890Z,66.70
2023-09-28T08:22:00.140Z,64.19
2023-09-28T08:24:44.406Z,62.49
2023-09-28T08:27:28.388Z,61.27
2023-09-28T08:30:13.085Z,62.13
2023-09-28T08:32:58.461Z,62.00
2023-09-28T08:35:42.500Z,63.15
2023-09-28T08:38:27.209Z,62.18
2023-09-28T08:41:12.085Z,62.32
2023-09-28T08:44:05.305Z,61.17
2023-09-28T08:46:51.166Z,60.58
2023-09-28T08:49:38.411Z,60.10
2023-09-28T08:52:24.270Z,58.04
2023-09-28T08:55:11.194Z,57.60
2023-09-28T08:57:56.158Z,58.44
2023-09-28T09:00:41.705Z,59.16
2023-09-28T09:03:26.363Z,59.17
2023-09-28T09:06:13.090Z,58.36
2023-09-28T09:09:02.863Z,59.18
2023-09-28T09:11:52.790Z,57.98
2023-09-28T09:14:37.747Z,57.55
2023-09-28T09:17:21.802Z,55.47
2023-09-28T09:20:10.767Z,53.18
2023-09-28T09:23:01.382Z,52.96
2023-09-28T09:25:48.459Z,54.34
2023-09-28T09:28:34.646Z,54.36
2023-09-28T09:31:18.875Z,54.90
2023-09-28T09:34:05.987Z,54.78
2023-09-28T09:36:57.568Z,54.92
2023-09-28T09:39:43.245Z,54.85
2023-09-28T09:42:28.958Z,53.07
2023-09-28T09:45:14.361Z,53.56
2023-09-28T09:47:59.732Z,53.82
2023-09-28T09:50:45.911Z,53.04
2023-09-28T09:53:32.153Z,52.62
2023-09-28T09:56:18.065Z,51.80
2023-09-28T09:59:07.413Z,50.73
2023-09-28T10:01:53.467Z,49.10
2023-09-28T10:04:38.172Z,50.02
2023-09-28T10:07:34.153Z,51.51
2023-09-28T10:10:30.094Z,50.34
2023-09-28T10:13:16.489Z,50.57
2023-09-28T10:16:04.313Z,50.48
2023-09-28T10:18:50.832Z,51.00
2023-09-28T10:21:39.118Z,50.35
2023-09-28T10:24:41.326Z,49.58
2023-09-28T10:27:25.378Z,50.71
2023-09-28T10:30:20.259Z,52.40
2023-09-28T10:33:12.127Z,52.15
2023-09-28T10:36:13.492Z,52.80
2023-09-28T10:39:12.911Z,52.06
2023-09-28T10:42:06.954Z,51.14
2023-09-28T10:44:52.542Z,49.83
2023-09-28T10:50:40.261Z,49.38
2023-09-28T10:53:24.900Z,49.38
2023-09-28T10:56:09.184Z,49.12
2023-09-28T10:58:59.292Z,50.29
2023-09-28T11:01:44.159Z,49.17
2023-09-28T11:04:43.207Z,47.43
2023-09-28T11:07:27.804Z,46.90
2023-09-28T11:10:13.067Z,47.43
2023-09-28T11:12:57.024Z,47.59
2023-09-28T11:15:42.633Z,48.01
2023-09-28T11:21:31.126Z,48.57
2023-09-28T11:27:17.593Z,47.82
2023-09-28T11:30:03.882Z,48.82
2023-09-28T11:32:53.215Z,49.38
2023-09-28T11:35:39.747Z,48.85
2023-09-28T11:38:23.853Z,50.14
2023-09-28T11:41:08.148Z,50.27
2023-09-28T11:43:55.080Z,51.06
2023-09-28T11:46:39.947Z,50.10
2023-09-28T11:49:25.851Z,49.22
2023-09-28T11:52:11.839Z,48.58
2023-09-28T11:54:55.881Z,47.99
2023-09-28T11:57:39.840Z,47.68
2023-09-28T12:03:27.745Z,47.11
2023-09-28T12:06:14.135Z,46.81
2023-09-28T12:08:58.124Z,46.93
2023-09-28T12:11:43.242Z,46.47
2023-09-28T12:14:27.406Z,46.86
2023-09-28T12:17:11.444Z,44.78
2023-09-28T12:19:55.518Z,44.33
2023-09-28T12:25:43.198Z,44.23
2023-09-28T12:28:27.154Z,47.27
2023-09-28T12:34:15.055Z,44.20
2023-09-28T12:36:59.299Z,45.30
2023-09-28T12:39:44.878Z,46.84
2023-09-28T12:42:29.027Z,46.79
2023-09-28T12:45:13.163Z,46.15
2023-09-28T12:47:57.206Z,45.39
2023-09-28T12:50:41.269Z,43.92
2023-09-28T12:53:27.402Z,45.88
2023-09-28T12:56:14.231Z,45.63
2023-09-28T12:58:58.372Z,44.99
2023-09-28T13:01:42.414Z,42.88
2023-09-28T13:04:26.520Z,44.17
2023-09-28T13:07:10.869Z,45.58
2023-09-28T13:09:54.754Z,46.31
2023-09-28T13:12:40.530Z,46.57
2023-09-28T13:15:24.653Z,46.72
2023-09-28T13:18:11.175Z,47.16
2023-09-28T13:20:55.073Z,46.31
2023-09-28T13:23:39.097Z,45.41
2023-09-28T13:26:25.385Z,45.82
2023-09-28T13:29:10.730Z,46.78
2023-09-28T13:31:55.813Z,45.66
2023-09-28T13:34:39.905Z,45.12
2023-09-28T13:37:24.008Z,46.92
2023-09-28T13:40:17.010Z,47.31
2023-09-28T13:43:01.352Z,47.14
2023-09-28T13:45:48.738Z,47.15
2023-09-28T13:48:33.188Z,46.24
2023-09-28T13:51:17.509Z,46.75
2023-09-28T13:54:01.694Z,47.64
2023-09-28T13:56:45.833Z,46.73
2023-09-28T13:59:30.270Z,46.80
2023-09-28T14:02:16.183Z,48.15
2023-09-28T14:05:02.233Z,47.57
2023-09-28T14:07:47.474Z,46.98
2023-09-28T14:10:31.993Z,47.24
2023-09-28T14:13:16.933Z,47.31
2023-09-28T14:16:02.666Z,46.43
2023-09-28T14:18:48.903Z,45.93
2023-09-28T14:21:33.227Z,46.47
2023-09-28T14:24:17.861Z,46.37
2023-09-28T14:27:01.951Z,46.58
2023-09-28T14:29:46.437Z,46.82
2023-09-28T14:32:31.044Z,46.17
2023-09-28T14:35:18.074Z,46.12
2023-09-28T14:38:02.357Z,46.68
2023-09-28T14:40:46.898Z,47.10
2023-09-28T14:43:31.124Z,47.48
2023-09-28T14:46:15.567Z,46.22
2023-09-28T14:49:00.795Z,45.99
2023-09-28T14:51:46.650Z,45.23
2023-09-28T14:54:30.822Z,44.63
2023-09-28T14:57:14.963Z,44.30
2023-09-28T14:59:59.330Z,44.08
2023-09-28T15:02:44.869Z,43.81
2023-09-28T15:05:29.610Z,43.97
2023-09-28T15:08:15.670Z,43.53
2023-09-28T15:10:59.871Z,43.63
2023-09-28T15:13:44.030Z,43.92
2023-09-28T15:16:28.329Z,43.76
2023-09-28T15:19:12.557Z,44.03
2023-09-28T15:21:56.634Z,44.89
2023-09-28T15:24:42.778Z,45.13
2023-09-28T15:27:27.074Z,45.98
2023-09-28T15:30:12.744Z,46.37
2023-09-28T15:32:56.947Z,47.14
2023-09-28T15:35:41.306Z,47.72
2023-09-28T15:38:25.568Z,48.02
2023-09-28T15:41:35.308Z,47.80
2023-09-28T15:44:19.687Z,48.77
2023-09-28T15:47:04.325Z,48.79
2023-09-28T15:49:49.464Z,48.72
2023-09-28T15:52:34.267Z,48.60
2023-09-28T15:55:18.817Z,49.47
2023-09-28T15:58:04.547Z,49.48
2023-09-28T16:00:50.217Z,50.49
2023-09-28T16:03:34.365Z,50.35
2023-09-28T16:06:19.096Z,49.65
2023-09-28T16:09:04.410Z,50.33
2023-09-28T16:11:48.825Z,50.95
2023-09-28T16:14:35.141Z,50.56
2023-09-28T16:17:19.925Z,51.40
2023-09-28T16:20:04.213Z,50.92
2023-09-28T16:22:48.715Z,50.99
2023-09-28T16:25:34.221Z,51.57
2023-09-28T16:28:19.507Z,51.86
2023-09-28T16:31:06.486Z,51.85
2023-09-28T16:33:50.841Z,51.58
2023-09-28T16:36:35.456Z,51.26
2023-09-28T16:39:19.672Z,51.46
2023-09-28T16:42:03.859Z,51.14
2023-09-28T16:44:47.692Z,50.70
2023-09-28T16:47:33.283Z,50.91
2023-09-28T16:50:17.557Z,50.44
2023-09-28T16:53:02.808Z,50.15
2023-09-28T16:55:46.886Z,50.28
2023-09-28T16:58:30.803Z,51.01
2023-09-28T17:01:15.307Z,50.73
2023-09-28T17:04:01.078Z,51.42
2023-09-28T17:06:45.153Z,51.57
2023-09-28T17:09:29.166Z,52.20
2023-09-28T17:12:13.648Z,52.26
2023-09-28T17:14:57.638Z,53.21
2023-09-28T17:17:41.800Z,53.88
2023-09-28T17:20:27.404Z,53.44
2023-09-28T17:23:11.598Z,53.95
2023-09-28T17:25:57.690Z,54.37
2023-09-28T17:28:42.715Z,54.96
2023-09-28T17:31:27.239Z,54.09
2023-09-28T17:34:11.819Z,53.79
2023-09-28T17:36:57.483Z,53.56
2023-09-28T17:39:41.750Z,53.10
2023-09-28T17:42:26.557Z,53.35
2023-09-28T17:45:11.064Z,53.21
2023-09-28T17:47:55.602Z,53.11
2023-09-28T17:50:39.978Z,52.75
2023-09-28T17:53:25.956Z,52.66
2023-09-28T17:56:10.292Z,52.57
2023-09-28T17:58:55.631Z,52.70
2023-09-28T18:01:43.201Z,52.16
2023-09-28T18:04:27.805Z,52.47
2023-09-28T18:07:14.919Z,51.25
2023-09-28T18:10:00.739Z,52.72
2023-09-28T18:12:45.705Z,51.20
2023-09-28T18:15:30.359Z,50.16
2023-09-28T18:18:14.994Z,50.01
2023-09-28T18:20:59.613Z,50.42
2023-09-28T18:23:47.668Z,50.29
2023-09-28T18:26:34.756Z,51.74
2023-09-28T18:29:19.571Z,51.79
2023-09-28T18:32:04.048Z,51.90
2023-09-28T18:34:50.873Z,52.35
2023-09-28T18:37:35.908Z,53.47
2023-09-28T18:40:23.468Z,54.28
2023-09-28T18:43:09.974Z,53.68
2023-09-28T18:45:55.990Z,54.79
2023-09-28T18:48:40.993Z,54.62
2023-09-28T18:51:26.378Z,55.48
2023-09-28T18:54:11.813Z,55.95
2023-09-28T18:56:56.509Z,56.33
2023-09-28T18:59:43.425Z,57.22
2023-09-28T19:02:28.973Z,56.66
2023-09-28T19:05:15.225Z,55.87
2023-09-28T19:07:59.985Z,56.21
2023-09-28T19:10:45.266Z,55.54
2023-09-28T19:13:32.519Z,54.99
2023-09-28T19:16:18.451Z,54.16
2023-09-28T19:19:02.841Z,54.36
2023-09-28T19:21:50.175Z,52.86
2023-09-28T19:24:36.233Z,52.28
2023-09-28T19:27:35.711Z,52.26
2023-09-28T19:30:23.960Z,51.77
2023-09-28T19:33:10.289Z,50.86
2023-09-28T19:35:55.293Z,51.67
2023-09-28T19:38:40.810Z,51.71
2023-09-28T19:41:29.833Z,52.19
2023-09-28T19:44:14.992Z,51.51
2023-09-28T19:46:59.697Z,50.93
2023-09-28T19:49:45.616Z,51.23
2023-09-28T19:52:33.934Z,50.77
2023-09-28T19:55:18.914Z,50.29
2023-09-28T19:58:03.482Z,49.42
2023-09-28T20:00:47.963Z,49.77
2023-09-28T20:03:32.524Z,49.19
2023-09-28T20:06:21.862Z,48.84
2023-09-28T20:09:07.675Z,49.81
2023-09-28T20:11:52.586Z,48.94
2023-09-28T20:14:36.813Z,49.36
2023-09-28T20:17:21.049Z,48.71
2023-09-28T20:20:06.961Z,48.57
2023-09-28T20:22:57.195Z,48.53
2023-09-28T20:25:42.570Z,48.02
2023-09-28T20:28:27.809Z,48.32
2023-09-28T20:31:12.035Z,48.70
2023-09-28T20:33:56.145Z,50.31
2023-09-28T20:36:40.337Z,50.06
2023-09-28T20:39:25.646Z,48.88
2023-09-28T20:42:10.458Z,47.70
2023-09-28T20:44:54.828Z,48.35
2023-09-28T20:47:39.321Z,47.76
2023-09-28T20:50:23.551Z,47.99
2023-09-28T20:53:07.756Z,50.46
2023-09-28T20:55:53.060Z,52.26
2023-09-28T20:58:36.950Z,52.85
2023-09-28T21:01:20.881Z,52.69
2023-09-28T21:04:05.208Z,52.98
2023-09-28T21:06:49.241Z,52.34
2023-09-28T21:09:33.234Z,52.19
2023-09-28T21:12:18.523Z,51.72
2023-09-28T21:15:02.900Z,50.44
2023-09-28T21:17:49.050Z,49.25
2023-09-28T21:20:33.399Z,48.03
2023-09-28T21:23:17.592Z,47.76
2023-09-28T21:26:01.826Z,46.61
2023-09-28T21:28:47.475Z,46.51
2023-09-28T21:31:31.594Z,46.24
2023-09-28T21:34:15.961Z,46.65
2023-09-28T21:37:00.099Z,46.46
2023-09-28T21:39:44.448Z,46.25
2023-09-28T21:42:28.966Z,46.59
2023-09-28T21:45:14.970Z,47.18
2023-09-28T21:47:59.218Z,46.18
2023-09-28T21:50:43.705Z,46.31
2023-09-28T21:53:28.049Z,46.72
2023-09-28T21:56:12.215Z,46.20
2023-09-28T21:58:56.430Z,46.33
2023-09-28T22:01:42.569Z,46.99
2023-09-28T22:04:26.521Z,47.20
2023-09-28T22:07:10.422Z,46.93
2023-09-28T22:09:55.010Z,47.25
2023-09-28T22:12:38.976Z,47.75
2023-09-28T22:15:23.421Z,47.15
2023-09-28T22:18:10.769Z,47.30
2023-09-28T22:20:54.901Z,47.08
2023-09-28T22:23:38.835Z,47.52
2023-09-28T22:26:22.929Z,48.01
2023-09-28T22:29:07.089Z,48.54
2023-09-28T22:31:51.061Z,48.41
2023-09-28T22:34:36.671Z,48.63
2023-09-28T22:37:20.605Z,48.46
2023-09-28T22:40:24.011Z,48.86
2023-09-28T22:43:10.626Z,48.57
2023-09-28T22:45:54.570Z,48.43
2023-09-28T22:48:38.736Z,48.45
2023-09-28T22:51:23.992Z,48.65
2023-09-28T22:54:09.006Z,48.15
2023-09-28T22:56:53.098Z,48.30
2023-09-28T22:59:37.852Z,48.03
2023-09-28T23:02:21.896Z,48.28
2023-09-28T23:05:06.625Z,48.25
2023-09-28T23:07:52.120Z,48.41
2023-09-28T23:10:36.360Z,48.19
2023-09-28T23:13:20.245Z,48.40
2023-09-28T23:16:06.702Z,48.59
2023-09-28T23:18:51.835Z,48.43
2023-09-28T23:21:36.581Z,48.33
2023-09-28T23:24:23.379Z,48.35
2023-09-28T23:27:07.495Z,48.62
2023-09-28T23:29:52.468Z,48.90
2023-09-28T23:32:38.143Z,48.97
2023-09-28T23:35:25.482Z,49.32
2023-09-28T23:38:11.754Z,49.17
2023-09-28T23:40:57.841Z,49.86
2023-09-28T23:43:42.135Z,50.21
2023-09-28T23:46:26.323Z,50.20
2023-09-28T23:49:11.292Z,50.64
2023-09-28T23:51:55.629Z,51.19
2023-09-28T23:54:40.012Z,51.88
2023-09-28T23:57:26.197Z,51.85
